sensor_id;sensor_type;location;lat;lon;timestamp;pressure;altitude;pressure_sealevel;temperature;humidity
62694;BME280;48759;52.544;13.418;2023-02-22T00:01:41;101085.59;;;9.36;89.85
62694;BME280;48759;52.544;13.418;2023-02-22T00:04:15;101094.13;;;9.27;94.63
62694;BME280;48759;52.544;13.418;2023-02-22T00:06:45;101087.59;;;9.28;96.31
62694;BME280;48759;52.544;13.418;2023-02-22T00:09:12;101088.81;;;9.10;97.19
62694;BME280;48759;52.544;13.418;2023-02-22T00:11:46;101084.56;;;9.23;95.77
62694;BME280;48759;52.544;13.418;2023-02-22T00:14:13;101083.81;;;9.58;93.16
62694;BME280;48759;52.544;13.418;2023-02-22T00:16:39;101082.09;;;9.57;97.08
62694;BME280;48759;52.544;13.418;2023-02-22T00:19:06;101079.09;;;9.52;94.05
62694;BME280;48759;52.544;13.418;2023-02-22T00:21:34;101083.41;;;9.32;94.70
62694;BME280;48759;52.544;13.418;2023-02-22T00:24:02;101076.03;;;9.17;98.06
62694;BME280;48759;52.544;13.418;2023-02-22T00:26:41;101070.44;;;8.96;99.09
62694;BME280;48759;52.544;13.418;2023-02-22T00:29:09;101081.31;;;9.04;100.00
62694;BME280;48759;52.544;13.418;2023-02-22T00:31:36;101076.09;;;9.24;98.06
62694;BME280;48759;52.544;13.418;2023-02-22T00:34:03;101069.94;;;9.07;99.46
62694;BME280;48759;52.544;13.418;2023-02-22T00:36:30;101070.16;;;9.20;97.34
62694;BME280;48759;52.544;13.418;2023-02-22T00:38:56;101070.75;;;9.45;97.28
62694;BME280;48759;52.544;13.418;2023-02-22T00:41:23;101067.53;;;9.42;95.92
62694;BME280;48759;52.544;13.418;2023-02-22T00:43:50;101063.06;;;9.41;97.22
62694;BME280;48759;52.544;13.418;2023-02-22T00:46:17;101077.16;;;9.38;95.18
62694;BME280;48759;52.544;13.418;2023-02-22T00:48:44;101069.97;;;9.37;94.99
62694;BME280;48759;52.544;13.418;2023-02-22T00:51:11;101073.25;;;9.32;98.42
62694;BME280;48759;52.544;13.418;2023-02-22T00:53:37;101078.00;;;9.23;96.81
62694;BME280;48759;52.544;13.418;2023-02-22T00:56:05;101071.00;;;9.21;96.26
62694;BME280;48759;52.544;13.418;2023-02-22T00:58:31;101063.50;;;9.00;99.14
62694;BME280;48759;52.544;13.418;2023-02-22T01:00:58;101074.00;;;8.82;100.00
62694;BME280;48759;52.544;13.418;2023-02-22T01:03:26;101071.81;;;8.92;100.00
62694;BME280;48759;52.544;13.418;2023-02-22T01:05:53;101071.97;;;8.76;100.00
62694;BME280;48759;52.544;13.418;2023-02-22T01:08:19;101072.44;;;8.65;100.00
62694;BME280;48759;52.544;13.418;2023-02-22T01:10:46;101075.91;;;8.96;100.00
62694;BME280;48759;52.544;13.418;2023-02-22T01:13:13;101074.22;;;8.58;100.00
62694;BME280;48759;52.544;13.418;2023-02-22T01:15:43;101069.91;;;8.78;100.00
62694;BME280;48759;52.544;13.418;2023-02-22T01:18:10;101076.81;;;8.74;100.00
62694;BME280;48759;52.544;13.418;2023-02-22T01:20:38;101069.84;;;8.86;100.00
62694;BME280;48759;52.544;13.418;2023-02-22T01:23:05;101073.44;;;8.87;100.00
62694;BME280;48759;52.544;13.418;2023-02-22T01:25:33;101072.03;;;9.05;100.00
62694;BME280;48759;52.544;13.418;2023-02-22T01:28:02;101069.38;;;8.97;100.00
62694;BME280;48759;52.544;13.418;2023-02-22T01:30:32;101069.22;;;8.99;100.00
62694;BME280;48759;52.544;13.418;2023-02-22T01:32:59;101065.97;;;9.25;100.00
62694;BME280;48759;52.544;13.418;2023-02-22T01:35:29;101065.97;;;9.10;100.00
62694;BME280;48759;52.544;13.418;2023-02-22T01:37:57;101061.16;;;9.12;100.00
62694;BME280;48759;52.544;13.418;2023-02-22T01:40:27;101060.31;;;9.26;98.95
62694;BME280;48759;52.544;13.418;2023-02-22T01:42:56;101051.56;;;8.93;100.00
62694;BME280;48759;52.544;13.418;2023-02-22T01:45:42;101056.13;;;9.15;100.00
62694;BME280;48759;52.544;13.418;2023-02-22T01:48:12;101050.91;;;9.35;100.00
62694;BME280;48759;52.544;13.418;2023-02-22T01:50:44;101050.63;;;9.01;100.00
62694;BME280;48759;52.544;13.418;2023-02-22T01:53:17;101055.09;;;9.16;100.00
62694;BME280;48759;52.544;13.418;2023-02-22T01:55:45;101056.44;;;9.20;100.00
62694;BME280;48759;52.544;13.418;2023-02-22T01:58:13;101051.78;;;9.36;100.00
62694;BME280;48759;52.544;13.418;2023-02-22T02:00:42;101043.84;;;9.41;100.00
62694;BME280;48759;52.544;13.418;2023-02-22T02:03:12;101042.88;;;9.34;100.00
62694;BME280;48759;52.544;13.418;2023-02-22T02:05:42;101045.22;;;9.66;99.00
62694;BME280;48759;52.544;13.418;2023-02-22T02:08:18;101046.03;;;9.45;98.21
62694;BME280;48759;52.544;13.418;2023-02-22T02:10:47;101043.84;;;9.41;100.00
62694;BME280;48759;52.544;13.418;2023-02-22T02:13:14;101055.09;;;9.61;98.14
62694;BME280;48759;52.544;13.418;2023-02-22T02:15:41;101045.34;;;9.43;99.66
62694;BME280;48759;52.544;13.418;2023-02-22T02:18:11;101055.94;;;9.61;97.63
62694;BME280;48759;52.544;13.418;2023-02-22T02:20:48;101048.47;;;9.70;96.14
62694;BME280;48759;52.544;13.418;2023-02-22T02:23:37;101045.88;;;9.68;96.31
62694;BME280;48759;52.544;13.418;2023-02-22T02:26:30;101045.47;;;9.71;97.74
62694;BME280;48759;52.544;13.418;2023-02-22T02:29:27;101036.63;;;9.40;98.37
62694;BME280;48759;52.544;13.418;2023-02-22T02:35:48;101036.72;;;9.46;100.00
62694;BME280;48759;52.544;13.418;2023-02-22T02:38:24;101041.47;;;9.88;95.60
62694;BME280;48759;52.544;13.418;2023-02-22T02:41:01;101041.84;;;9.49;99.30
62694;BME280;48759;52.544;13.418;2023-02-22T02:43:32;101036.97;;;9.66;95.53
62694;BME280;48759;52.544;13.418;2023-02-22T02:46:05;101037.97;;;9.44;99.19
62694;BME280;48759;52.544;13.418;2023-02-22T02:48:34;101034.28;;;9.22;98.99
62694;BME280;48759;52.544;13.418;2023-02-22T02:51:05;101040.06;;;9.42;98.88
62694;BME280;48759;52.544;13.418;2023-02-22T02:53:37;101029.44;;;9.39;97.91
62694;BME280;48759;52.544;13.418;2023-02-22T02:56:05;101033.13;;;9.16;100.00
62694;BME280;48759;52.544;13.418;2023-02-22T02:58:32;101030.88;;;9.05;100.00
62694;BME280;48759;52.544;13.418;2023-02-22T03:01:01;101036.63;;;9.40;100.00
62694;BME280;48759;52.544;13.418;2023-02-22T03:03:59;101039.59;;;9.38;99.41
62694;BME280;48759;52.544;13.418;2023-02-22T03:06:50;101036.34;;;8.91;100.00
62694;BME280;48759;52.544;13.418;2023-02-22T03:09:33;101030.97;;;8.97;100.00
62694;BME280;48759;52.544;13.418;2023-02-22T03:12:13;101031.81;;;9.12;100.00
62694;BME280;48759;52.544;13.418;2023-02-22T03:14:51;101032.75;;;9.34;100.00
62694;BME280;48759;52.544;13.418;2023-02-22T03:17:24;101029.34;;;8.88;100.00
62694;BME280;48759;52.544;13.418;2023-02-22T03:19:58;101032.47;;;9.14;100.00
62694;BME280;48759;52.544;13.418;2023-02-22T03:22:32;101029.06;;;8.98;100.00
62694;BME280;48759;52.544;13.418;2023-02-22T03:25:06;101021.97;;;8.89;100.00
62694;BME280;48759;52.544;13.418;2023-02-22T03:27:37;101016.91;;;8.63;100.00
62694;BME280;48759;52.544;13.418;2023-02-22T03:30:12;101019.41;;;8.87;100.00
62694;BME280;48759;52.544;13.418;2023-02-22T03:32:43;101020.63;;;8.84;100.00
62694;BME280;48759;52.544;13.418;2023-02-22T03:35:15;101026.31;;;8.83;100.00
62694;BME280;48759;52.544;13.418;2023-02-22T03:37:48;101020.97;;;9.55;100.00
62694;BME280;48759;52.544;13.418;2023-02-22T03:40:17;101025.84;;;8.94;100.00
62694;BME280;48759;52.544;13.418;2023-02-22T03:42:53;101030.00;;;9.05;100.00
62694;BME280;48759;52.544;13.418;2023-02-22T03:45:24;101028.28;;;9.33;100.00
62694;BME280;48759;52.544;13.418;2023-02-22T03:47:59;101026.50;;;9.40;100.00
62694;BME280;48759;52.544;13.418;2023-02-22T03:50:32;101026.31;;;9.42;100.00
62694;BME280;48759;52.544;13.418;2023-02-22T03:53:01;101028.88;;;9.29;100.00
62694;BME280;48759;52.544;13.418;2023-02-22T03:55:28;101039.00;;;8.99;100.00
62694;BME280;48759;52.544;13.418;2023-02-22T03:57:57;101038.78;;;9.00;100.00
62694;BME280;48759;52.544;13.418;2023-02-22T04:00:27;101039.56;;;8.94;100.00
62694;BME280;48759;52.544;13.418;2023-02-22T04:02:54;101037.31;;;9.12;100.00
62694;BME280;48759;52.544;13.418;2023-02-22T04:05:21;101032.75;;;9.34;100.00
62694;BME280;48759;52.544;13.418;2023-02-22T04:07:49;101033.69;;;9.27;100.00
62694;BME280;48759;52.544;13.418;2023-02-22T04:10:18;101032.66;;;9.28;100.00
62694;BME280;48759;52.544;13.418;2023-02-22T04:12:44;101038.81;;;9.44;100.00
62694;BME280;48759;52.544;13.418;2023-02-22T04:15:14;101035.78;;;9.39;100.00
62694;BME280;48759;52.544;13.418;2023-02-22T04:17:41;101033.59;;;9.35;100.00
62694;BME280;48759;52.544;13.418;2023-02-22T04:20:08;101029.63;;;9.23;100.00
62694;BME280;48759;52.544;13.418;2023-02-22T04:22:36;101037.75;;;9.01;100.00
62694;BME280;48759;52.544;13.418;2023-02-22T04:25:02;101031.63;;;9.14;100.00
62694;BME280;48759;52.544;13.418;2023-02-22T04:27:30;101031.22;;;9.02;100.00
62694;BME280;48759;52.544;13.418;2023-02-22T04:29:57;101039.00;;;9.13;100.00
62694;BME280;48759;52.544;13.418;2023-02-22T04:32:24;101043.16;;;8.95;100.00
62694;BME280;48759;52.544;13.418;2023-02-22T04:34:50;101033.97;;;9.32;100.00
62694;BME280;48759;52.544;13.418;2023-02-22T04:37:17;101038.72;;;9.38;100.00
62694;BME280;48759;52.544;13.418;2023-02-22T04:39:43;101030.00;;;9.49;100.00
62694;BME280;48759;52.544;13.418;2023-02-22T04:42:10;101035.41;;;9.42;100.00
62694;BME280;48759;52.544;13.418;2023-02-22T04:44:38;101036.34;;;9.49;100.00
62694;BME280;48759;52.544;13.418;2023-02-22T04:47:05;101033.78;;;8.89;100.00
62694;BME280;48759;52.544;13.418;2023-02-22T04:49:31;101027.25;;;9.34;100.00
62694;BME280;48759;52.544;13.418;2023-02-22T04:51:58;101029.31;;;9.32;100.00
62694;BME280;48759;52.544;13.418;2023-02-22T04:54:24;101031.50;;;9.07;100.00
62694;BME280;48759;52.544;13.418;2023-02-22T04:56:51;101026.31;;;8.83;100.00
62694;BME280;48759;52.544;13.418;2023-02-22T04:59:18;101022.22;;;9.38;100.00
62694;BME280;48759;52.544;13.418;2023-02-22T05:01:46;101025.34;;;9.49;100.00
62694;BME280;48759;52.544;13.418;2023-02-22T05:04:12;101019.03;;;9.19;100.00
62694;BME280;48759;52.544;13.418;2023-02-22T05:06:39;101022.59;;;9.35;100.00
62694;BME280;48759;52.544;13.418;2023-02-22T05:09:06;101021.66;;;9.28;100.00
62694;BME280;48759;52.544;13.418;2023-02-22T05:11:32;101022.13;;;9.16;100.00
62694;BME280;48759;52.544;13.418;2023-02-22T05:13:59;101015.69;;;9.53;100.00
62694;BME280;48759;52.544;13.418;2023-02-22T05:16:25;101016.69;;;9.67;100.00
62694;BME280;48759;52.544;13.418;2023-02-22T05:18:53;101018.44;;;9.39;100.00
62694;BME280;48759;52.544;13.418;2023-02-22T05:21:20;101023.94;;;8.95;100.00
62694;BME280;48759;52.544;13.418;2023-02-22T05:23:47;101021.28;;;9.60;100.00
62694;BME280;48759;52.544;13.418;2023-02-22T05:26:14;101021.03;;;10.19;100.00
62694;BME280;48759;52.544;13.418;2023-02-22T05:28:41;101015.69;;;9.89;100.00
62694;BME280;48759;52.544;13.418;2023-02-22T05:31:07;101015.84;;;9.67;100.00
62694;BME280;48759;52.544;13.418;2023-02-22T05:33:34;101017.31;;;9.84;100.00
62694;BME280;48759;52.544;13.418;2023-02-22T05:36:02;101022.16;;;9.46;100.00
62694;BME280;48759;52.544;13.418;2023-02-22T05:38:29;101024.16;;;9.73;100.00
62694;BME280;48759;52.544;13.418;2023-02-22T05:40:55;101018.31;;;9.97;100.00
62694;BME280;48759;52.544;13.418;2023-02-22T05:43:22;101018.19;;;10.06;100.00
62694;BME280;48759;52.544;13.418;2023-02-22T05:45:49;101018.97;;;10.21;100.00
62694;BME280;48759;52.544;13.418;2023-02-22T05:48:15;101023.16;;;10.17;100.00
62694;BME280;48759;52.544;13.418;2023-02-22T05:50:42;101026.28;;;10.35;100.00
62694;BME280;48759;52.544;13.418;2023-02-22T05:53:10;101032.06;;;10.19;100.00
62694;BME280;48759;52.544;13.418;2023-02-22T05:55:37;101028.50;;;10.25;100.00
62694;BME280;48759;52.544;13.418;2023-02-22T05:58:04;101035.72;;;10.05;100.00
62694;BME280;48759;52.544;13.418;2023-02-22T06:00:31;101037.94;;;10.37;100.00
62694;BME280;48759;52.544;13.418;2023-02-22T06:03:00;101037.22;;;10.28;100.00
62694;BME280;48759;52.544;13.418;2023-02-22T06:05:27;101035.19;;;9.94;100.00
62694;BME280;48759;52.544;13.418;2023-02-22T06:07:55;101037.19;;;10.01;100.00
62694;BME280;48759;52.544;13.418;2023-02-22T06:10:23;101032.78;;;10.06;100.00
62694;BME280;48759;52.544;13.418;2023-02-22T06:12:50;101032.03;;;9.76;100.00
62694;BME280;48759;52.544;13.418;2023-02-22T06:15:19;101041.22;;;10.47;100.00
62694;BME280;48759;52.544;13.418;2023-02-22T06:17:46;101039.75;;;10.72;100.00
62694;BME280;48759;52.544;13.418;2023-02-22T06:20:15;101050.75;;;10.72;100.00
62694;BME280;48759;52.544;13.418;2023-02-22T06:22:41;101040.72;;;10.86;100.00
62694;BME280;48759;52.544;13.418;2023-02-22T06:25:12;101047.78;;;10.46;100.00
62694;BME280;48759;52.544;13.418;2023-02-22T06:27:41;101049.59;;;10.88;100.00
62694;BME280;48759;52.544;13.418;2023-02-22T06:30:09;101049.84;;;10.65;100.00
62694;BME280;48759;52.544;13.418;2023-02-22T06:32:36;101049.94;;;11.34;100.00
62694;BME280;48759;52.544;13.418;2023-02-22T06:35:03;101043.75;;;10.98;100.00
62694;BME280;48759;52.544;13.418;2023-02-22T06:37:30;101062.63;;;10.73;100.00
62694;BME280;48759;52.544;13.418;2023-02-22T06:39:57;101059.38;;;10.91;100.00
62694;BME280;48759;52.544;13.418;2023-02-22T06:42:23;101063.38;;;11.16;100.00
62694;BME280;48759;52.544;13.418;2023-02-22T06:44:51;101068.13;;;11.35;100.00
62694;BME280;48759;52.544;13.418;2023-02-22T06:47:18;101068.59;;;11.04;100.00
62694;BME280;48759;52.544;13.418;2023-02-22T06:49:51;101064.38;;;10.81;100.00
62694;BME280;48759;52.544;13.418;2023-02-22T06:52:18;101060.59;;;11.09;100.00
62694;BME280;48759;52.544;13.418;2023-02-22T06:54:45;101066.38;;;11.21;100.00
62694;BME280;48759;52.544;13.418;2023-02-22T06:57:11;101066.38;;;11.21;100.00
62694;BME280;48759;52.544;13.418;2023-02-22T06:59:38;101064.47;;;11.22;100.00
62694;BME280;48759;52.544;13.418;2023-02-22T07:02:06;101063.94;;;11.39;100.00
62694;BME280;48759;52.544;13.418;2023-02-22T07:04:33;101067.22;;;11.22;100.00
62694;BME280;48759;52.544;13.418;2023-02-22T07:07:02;101076.50;;;11.48;100.00
62694;BME280;48759;52.544;13.418;2023-02-22T07:09:29;101069.31;;;11.95;99.83
62694;BME280;48759;52.544;13.418;2023-02-22T07:11:55;101072.91;;;11.55;100.00
62694;BME280;48759;52.544;13.418;2023-02-22T07:14:22;101073.41;;;11.30;100.00
62694;BME280;48759;52.544;13.418;2023-02-22T07:16:49;101080.47;;;11.39;100.00
62694;BME280;48759;52.544;13.418;2023-02-22T07:19:17;101078.91;;;12.12;95.01
62694;BME280;48759;52.544;13.418;2023-02-22T07:21:43;101079.66;;;11.45;95.00
62694;BME280;48759;52.544;13.418;2023-02-22T07:24:12;101079.81;;;11.03;100.00
62694;BME280;48759;52.544;13.418;2023-02-22T07:26:39;101077.00;;;11.24;100.00
62694;BME280;48759;52.544;13.418;2023-02-22T07:29:08;101077.41;;;12.16;96.44
62694;BME280;48759;52.544;13.418;2023-02-22T07:31:36;101086.41;;;12.45;91.08
62694;BME280;48759;52.544;13.418;2023-02-22T07:34:05;101074.47;;;12.24;89.26
62694;BME280;48759;52.544;13.418;2023-02-22T07:36:33;101076.88;;;12.80;84.88
62694;BME280;48759;52.544;13.418;2023-02-22T07:39:00;101082.59;;;12.59;85.00
62694;BME280;48759;52.544;13.418;2023-02-22T07:41:26;101081.13;;;12.63;82.80
62694;BME280;48759;52.544;13.418;2023-02-22T07:43:53;101084.53;;;12.85;81.71
62694;BME280;48759;52.544;13.418;2023-02-22T07:46:20;101081.38;;;12.75;82.43
62694;BME280;48759;52.544;13.418;2023-02-22T07:48:46;101084.56;;;11.91;88.58
62694;BME280;48759;52.544;13.418;2023-02-22T07:51:14;101087.44;;;11.35;90.72
62694;BME280;48759;52.544;13.418;2023-02-22T07:53:42;101083.63;;;11.71;92.53
62694;BME280;48759;52.544;13.418;2023-02-22T07:56:09;101084.03;;;11.68;93.02
62694;BME280;48759;52.544;13.418;2023-02-22T07:58:36;101087.44;;;11.70;91.96
62694;BME280;48759;52.544;13.418;2023-02-22T08:01:03;101078.75;;;12.47;86.65
62694;BME280;48759;52.544;13.418;2023-02-22T08:03:31;101073.94;;;11.81;87.02
62694;BME280;48759;52.544;13.418;2023-02-22T08:06:01;101082.47;;;11.59;90.45
62694;BME280;48759;52.544;13.418;2023-02-22T08:08:28;101078.94;;;11.65;88.86
62694;BME280;48759;52.544;13.418;2023-02-22T08:10:56;101085.72;;;11.62;87.85
62694;BME280;48759;52.544;13.418;2023-02-22T08:13:23;101088.56;;;11.47;87.79
62694;BME280;48759;52.544;13.418;2023-02-22T08:15:51;101091.25;;;11.69;85.75
62694;BME280;48759;52.544;13.418;2023-02-22T08:18:19;101092.38;;;11.81;87.54
62694;BME280;48759;52.544;13.418;2023-02-22T08:20:47;101081.09;;;11.76;86.18
62694;BME280;48759;52.544;13.418;2023-02-22T08:23:15;101080.75;;;11.92;85.06
62694;BME280;48759;52.544;13.418;2023-02-22T08:25:42;101079.09;;;12.04;83.25
62694;BME280;48759;52.544;13.418;2023-02-22T08:28:12;101087.56;;;12.03;82.63
62694;BME280;48759;52.544;13.418;2023-02-22T08:30:40;101084.03;;;12.29;84.24
62694;BME280;48759;52.544;13.418;2023-02-22T08:33:08;101082.81;;;12.51;90.16
62694;BME280;48759;52.544;13.418;2023-02-22T08:35:35;101085.13;;;12.54;81.99
62694;BME280;48759;52.544;13.418;2023-02-22T08:38:06;101087.69;;;12.49;83.34
62694;BME280;48759;52.544;13.418;2023-02-22T08:40:39;101083.69;;;12.71;81.93
62694;BME280;48759;52.544;13.418;2023-02-22T08:43:06;101087.50;;;12.77;83.06
62694;BME280;48759;52.544;13.418;2023-02-22T08:45:34;101083.28;;;12.81;76.82
62694;BME280;48759;52.544;13.418;2023-02-22T08:48:01;101089.41;;;12.96;76.14
62694;BME280;48759;52.544;13.418;2023-02-22T08:50:29;101088.13;;;12.85;75.54
62694;BME280;48759;52.544;13.418;2023-02-22T08:52:59;101078.78;;;12.86;74.32
62694;BME280;48759;52.544;13.418;2023-02-22T08:55:28;101083.69;;;12.84;74.48
62694;BME280;48759;52.544;13.418;2023-02-22T08:57:56;101080.91;;;12.58;75.07
62694;BME280;48759;52.544;13.418;2023-02-22T09:00:23;101089.44;;;12.89;75.21
62694;BME280;48759;52.544;13.418;2023-02-22T09:02:51;101087.31;;;12.91;74.61
62694;BME280;48759;52.544;13.418;2023-02-22T09:05:18;101085.81;;;13.15;74.40
62694;BME280;48759;52.544;13.418;2023-02-22T09:07:45;101087.25;;;13.31;72.65
62694;BME280;48759;52.544;13.418;2023-02-22T09:10:14;101080.03;;;13.30;71.54
62694;BME280;48759;52.544;13.418;2023-02-22T09:12:41;101088.09;;;13.38;70.78
62694;BME280;48759;52.544;13.418;2023-02-22T09:15:09;101084.66;;;13.62;71.78
62694;BME280;48759;52.544;13.418;2023-02-22T09:17:36;101082.81;;;13.88;69.66
62694;BME280;48759;52.544;13.418;2023-02-22T09:20:05;101090.56;;;13.72;68.65
62694;BME280;48759;52.544;13.418;2023-02-22T09:22:34;101084.44;;;13.57;68.64
62694;BME280;48759;52.544;13.418;2023-02-22T09:25:01;101084.94;;;13.92;67.99
62694;BME280;48759;52.544;13.418;2023-02-22T09:27:27;101093.66;;;13.96;67.23
62694;BME280;48759;52.544;13.418;2023-02-22T09:29:54;101086.41;;;13.95;66.57
62694;BME280;48759;52.544;13.418;2023-02-22T09:32:21;101084.03;;;14.05;65.98
62694;BME280;48759;52.544;13.418;2023-02-22T09:34:48;101085.00;;;13.86;66.87
62694;BME280;48759;52.544;13.418;2023-02-22T09:37:18;101085.03;;;14.17;65.85
62694;BME280;48759;52.544;13.418;2023-02-22T09:39:44;101086.09;;;14.16;65.03
62694;BME280;48759;52.544;13.418;2023-02-22T09:42:14;101086.44;;;14.26;64.69
62694;BME280;48759;52.544;13.418;2023-02-22T09:44:46;101088.53;;;14.37;63.05
62694;BME280;48759;52.544;13.418;2023-02-22T09:47:19;101081.78;;;14.65;62.74
62694;BME280;48759;52.544;13.418;2023-02-22T09:49:55;101080.03;;;14.95;61.72
62694;BME280;48759;52.544;13.418;2023-02-22T09:52:27;101074.97;;;14.61;61.79
62694;BME280;48759;52.544;13.418;2023-02-22T09:55:04;101065.41;;;15.06;61.31
62694;BME280;48759;52.544;13.418;2023-02-22T09:57:36;101069.44;;;15.28;60.47
62694;BME280;48759;52.544;13.418;2023-02-22T10:00:10;101072.78;;;15.12;61.00
62694;BME280;48759;52.544;13.418;2023-02-22T10:02:45;101066.44;;;14.87;61.30
62694;BME280;48759;52.544;13.418;2023-02-22T10:05:18;101077.63;;;14.99;59.70
62694;BME280;48759;52.544;13.418;2023-02-22T10:07:52;101071.19;;;15.48;60.18
62694;BME280;48759;52.544;13.418;2023-02-22T10:10:22;101070.25;;;15.54;59.48
62694;BME280;48759;52.544;13.418;2023-02-22T10:12:58;101066.72;;;15.47;59.12
62694;BME280;48759;52.544;13.418;2023-02-22T10:15:47;101065.78;;;15.53;58.66
62694;BME280;48759;52.544;13.418;2023-02-22T10:18:31;101059.75;;;15.92;57.96
62694;BME280;48759;52.544;13.418;2023-02-22T10:21:11;101059.84;;;16.16;57.11
62694;BME280;48759;52.544;13.418;2023-02-22T10:23:48;101063.31;;;15.45;57.69
62694;BME280;48759;52.544;13.418;2023-02-22T10:26:23;101058.13;;;15.12;59.37
62694;BME280;48759;52.544;13.418;2023-02-22T10:28:53;101057.72;;;15.08;59.38
62694;BME280;48759;52.544;13.418;2023-02-22T10:31:25;101060.41;;;15.40;59.17
62694;BME280;48759;52.544;13.418;2023-02-22T10:33:57;101052.34;;;15.86;58.47
62694;BME280;48759;52.544;13.418;2023-02-22T10:36:25;101055.88;;;15.93;57.64
62694;BME280;48759;52.544;13.418;2023-02-22T10:38:57;101052.03;;;15.94;57.26
62694;BME280;48759;52.544;13.418;2023-02-22T10:41:28;101063.81;;;15.42;59.61
62694;BME280;48759;52.544;13.418;2023-02-22T10:43:56;101057.88;;;15.56;57.57
62694;BME280;48759;52.544;13.418;2023-02-22T10:46:24;101049.38;;;15.99;56.53
62694;BME280;48759;52.544;13.418;2023-02-22T10:48:56;101054.81;;;15.94;57.11
62694;BME280;48759;52.544;13.418;2023-02-22T10:51:27;101044.31;;;15.96;56.67
62694;BME280;48759;52.544;13.418;2023-02-22T10:53:58;101049.22;;;16.13;55.99
62694;BME280;48759;52.544;13.418;2023-02-22T10:56:36;101046.41;;;16.31;54.70
62694;BME280;48759;52.544;13.418;2023-02-22T10:59:25;101052.16;;;16.59;54.44
62694;BME280;48759;52.544;13.418;2023-02-22T11:01:52;101057.56;;;16.54;53.68
62694;BME280;48759;52.544;13.418;2023-02-22T11:04:20;101047.63;;;16.35;53.75
62694;BME280;48759;52.544;13.418;2023-02-22T11:07:05;101048.50;;;16.35;53.17
62694;BME280;48759;52.544;13.418;2023-02-22T11:09:45;101044.97;;;16.40;52.24
62694;BME280;48759;52.544;13.418;2023-02-22T11:12:17;101046.69;;;16.11;51.34
62694;BME280;48759;52.544;13.418;2023-02-22T11:14:45;101041.31;;;15.98;53.03
62694;BME280;48759;52.544;13.418;2023-02-22T11:17:17;101040.22;;;15.51;52.32
62694;BME280;48759;52.544;13.418;2023-02-22T11:19:46;101047.13;;;15.78;51.69
62694;BME280;48759;52.544;13.418;2023-02-22T11:22:20;101045.28;;;15.90;51.83
62694;BME280;48759;52.544;13.418;2023-02-22T11:24:52;101042.75;;;16.19;51.29
62694;BME280;48759;52.544;13.418;2023-02-22T11:27:36;101040.06;;;15.94;51.41
62694;BME280;48759;52.544;13.418;2023-02-22T11:30:21;101033.00;;;16.28;50.96
62694;BME280;48759;52.544;13.418;2023-02-22T11:32:53;101034.75;;;16.64;51.43
62694;BME280;48759;52.544;13.418;2023-02-22T11:35:34;101026.09;;;16.19;51.54
62694;BME280;48759;52.544;13.418;2023-02-22T11:38:19;101022.00;;;16.21;52.25
62694;BME280;48759;52.544;13.418;2023-02-22T11:41:04;101019.75;;;16.12;52.17
62694;BME280;48759;52.544;13.418;2023-02-22T11:43:33;101020.63;;;15.82;53.06
62694;BME280;48759;52.544;13.418;2023-02-22T11:46:03;101025.88;;;16.02;53.16
62694;BME280;48759;52.544;13.418;2023-02-22T11:48:32;101013.97;;;15.28;53.73
62694;BME280;48759;52.544;13.418;2023-02-22T11:51:26;101010.19;;;14.86;54.00
62694;BME280;48759;52.544;13.418;2023-02-22T11:54:17;100997.94;;;15.12;54.70
62694;BME280;48759;52.544;13.418;2023-02-22T11:57:02;101004.22;;;15.44;54.75
62694;BME280;48759;52.544;13.418;2023-02-22T11:59:35;101002.84;;;15.35;54.68
62694;BME280;48759;52.544;13.418;2023-02-22T12:02:56;101005.91;;;15.27;55.02
62694;BME280;48759;52.544;13.418;2023-02-22T12:08:57;100995.97;;;15.19;55.31
62694;BME280;48759;52.544;13.418;2023-02-22T12:15:11;101001.56;;;15.31;56.17
62694;BME280;48759;52.544;13.418;2023-02-22T12:17:48;100988.91;;;15.42;54.92
62694;BME280;48759;52.544;13.418;2023-02-22T12:20:33;100989.03;;;15.47;54.39
62694;BME280;48759;52.544;13.418;2023-02-22T12:23:11;100997.06;;;15.55;54.53
62694;BME280;48759;52.544;13.418;2023-02-22T12:25:46;100982.59;;;15.35;54.55
62694;BME280;48759;52.544;13.418;2023-02-22T12:28:22;100981.00;;;15.02;55.38
62694;BME280;48759;52.544;13.418;2023-02-22T12:31:02;100987.97;;;15.48;54.46
62694;BME280;48759;52.544;13.418;2023-02-22T12:33:39;100984.44;;;15.41;54.57
62694;BME280;48759;52.544;13.418;2023-02-22T12:36:13;100985.50;;;15.40;54.51
62694;BME280;48759;52.544;13.418;2023-02-22T12:38:42;100981.97;;;15.51;54.12
62694;BME280;48759;52.544;13.418;2023-02-22T12:41:15;100979.81;;;15.35;53.64
62694;BME280;48759;52.544;13.418;2023-02-22T12:43:48;100988.38;;;15.51;53.68
62694;BME280;48759;52.544;13.418;2023-02-22T12:46:20;100982.31;;;15.00;53.56
62694;BME280;48759;52.544;13.418;2023-02-22T12:48:53;100988.00;;;15.59;53.41
62694;BME280;48759;52.544;13.418;2023-02-22T12:51:27;100982.53;;;15.71;52.80
62694;BME280;48759;52.544;13.418;2023-02-22T12:54:04;100979.75;;;15.71;53.00
62694;BME280;48759;52.544;13.418;2023-02-22T12:56:40;100989.88;;;15.95;52.83
62694;BME280;48759;52.544;13.418;2023-02-22T12:59:14;100981.75;;;15.82;52.37
62694;BME280;48759;52.544;13.418;2023-02-22T13:01:49;100980.50;;;15.48;51.72
62694;BME280;48759;52.544;13.418;2023-02-22T13:04:17;100980.88;;;15.52;51.50
62694;BME280;48759;52.544;13.418;2023-02-22T13:06:55;100984.44;;;15.41;51.72
62694;BME280;48759;52.544;13.418;2023-02-22T13:12:33;100979.19;;;15.51;51.35